createdAt,value
2019-05-05T00:02:44.807Z,13.00
2019-05-05T00:05:15.452Z,11.78
2019-05-05T00:07:44.750Z,13.00
2019-05-05T00:10:15.115Z,12.05
2019-05-05T00:12:50.203Z,12.05
2019-05-05T00:15:38.890Z,11.43
2019-05-05T00:18:06.186Z,13.20
2019-05-05T00:20:34.389Z,12.53
2019-05-05T00:23:01.714Z,12.20
2019-05-05T00:25:28.994Z,12.50
2019-05-05T00:27:56.327Z,12.60
2019-05-05T00:30:24.919Z,14.30
2019-05-05T00:32:52.314Z,14.70
2019-05-05T00:35:19.601Z,14.35
2019-05-05T00:37:46.929Z,15.90
2019-05-05T00:40:14.286Z,16.32
2019-05-05T00:42:41.598Z,16.77
2019-05-05T00:45:08.918Z,15.90
2019-05-05T00:47:37.849Z,16.17
2019-05-05T00:50:06.814Z,14.75
2019-05-05T00:52:35.163Z,13.10
2019-05-05T00:55:04.484Z,13.95
2019-05-05T00:57:31.476Z,12.63
2019-05-05T00:59:58.794Z,12.50
2019-05-05T01:02:30.480Z,13.78
2019-05-05T01:04:59.437Z,11.63
2019-05-05T01:07:26.754Z,12.18
2019-05-05T01:09:54.382Z,11.20
2019-05-05T01:12:21.915Z,12.47
2019-05-05T01:14:49.231Z,13.10
2019-05-05T01:17:16.520Z,11.33
2019-05-05T01:19:46.722Z,11.95
2019-05-05T01:22:14.415Z,12.40
2019-05-05T01:24:41.762Z,12.07
2019-05-05T01:27:09.077Z,13.65
2019-05-05T01:29:36.370Z,12.03
2019-05-05T01:32:05.327Z,12.20
2019-05-05T01:34:40.300Z,12.13
2019-05-05T01:37:12.319Z,10.38
2019-05-05T01:39:54.206Z,12.63
2019-05-05T01:42:21.565Z,12.85
2019-05-05T01:44:48.863Z,11.70
2019-05-05T01:47:16.193Z,13.08
2019-05-05T01:49:45.352Z,13.60
2019-05-05T01:52:12.431Z,13.08
2019-05-05T01:54:39.745Z,12.82
2019-05-05T01:57:07.119Z,12.93
2019-05-05T01:59:35.330Z,13.35
2019-05-05T02:02:04.347Z,12.85
2019-05-05T02:04:31.753Z,13.83
2019-05-05T02:06:59.078Z,15.23
2019-05-05T02:09:26.384Z,12.58
2019-05-05T02:11:54.714Z,12.43
2019-05-05T02:14:22.205Z,12.90
2019-05-05T02:16:49.510Z,12.63
2019-05-05T02:19:16.826Z,14.43
2019-05-05T02:21:45.307Z,11.78
2019-05-05T02:24:14.388Z,12.35
2019-05-05T02:26:41.584Z,12.85
2019-05-05T02:29:14.227Z,13.15
2019-05-05T02:31:45.406Z,11.90
2019-05-05T02:34:12.184Z,13.10
2019-05-05T02:36:39.475Z,12.68
2019-05-05T02:39:08.040Z,13.53
2019-05-05T02:41:35.372Z,12.70
2019-05-05T02:44:05.091Z,13.03
2019-05-05T02:46:38.992Z,12.70
2019-05-05T02:49:06.315Z,13.50
2019-05-05T02:51:35.470Z,12.88
2019-05-05T02:54:04.453Z,14.40
2019-05-05T02:56:48.306Z,14.23
2019-05-05T02:59:17.407Z,13.80
2019-05-05T03:01:46.379Z,12.25
2019-05-05T03:04:14.201Z,13.30
2019-05-05T03:06:43.714Z,13.18
2019-05-05T03:09:11.076Z,12.88
2019-05-05T03:11:38.392Z,13.00
2019-05-05T03:14:06.027Z,12.53
2019-05-05T03:16:35.132Z,13.85
2019-05-05T03:19:03.558Z,12.00
2019-05-05T03:21:30.933Z,12.58
2019-05-05T03:23:58.264Z,14.20
2019-05-05T03:26:25.579Z,13.13
2019-05-05T03:28:54.555Z,12.78
2019-05-05T03:31:25.816Z,12.88
2019-05-05T03:33:54.698Z,12.60
2019-05-05T03:36:20.498Z,14.45
2019-05-05T03:38:47.869Z,13.32
2019-05-05T03:41:31.756Z,13.70
2019-05-05T03:44:00.686Z,13.90
2019-05-05T03:46:27.987Z,13.60
2019-05-05T03:48:55.309Z,12.88
2019-05-05T03:51:24.300Z,13.10
2019-05-05T03:53:53.483Z,12.85
2019-05-05T03:56:20.825Z,13.32
2019-05-05T03:58:48.107Z,12.47
2019-05-05T04:01:19.949Z,13.55
2019-05-05T04:03:47.286Z,13.25
2019-05-05T04:06:14.707Z,13.62
2019-05-05T04:08:43.958Z,14.40
2019-05-05T04:11:11.226Z,13.95
2019-05-05T04:13:38.527Z,14.00
2019-05-05T04:16:10.169Z,13.88
2019-05-05T04:18:39.127Z,13.58
2019-05-05T04:21:06.422Z,13.62
2019-05-05T04:23:33.714Z,13.50
2019-05-05T04:26:01.030Z,12.60
2019-05-05T04:28:28.319Z,14.10
2019-05-05T04:30:55.619Z,15.05
2019-05-05T04:33:23.633Z,15.65
2019-05-05T04:35:50.956Z,14.03
2019-05-05T04:38:18.240Z,13.35
2019-05-05T04:40:45.558Z,13.65
2019-05-05T04:43:14.354Z,13.48
2019-05-05T04:45:43.465Z,13.80
2019-05-05T04:48:13.749Z,13.35
2019-05-05T04:50:44.054Z,14.15
2019-05-05T04:53:13.606Z,13.90
2019-05-05T04:55:40.900Z,13.08
2019-05-05T04:58:08.191Z,14.50
2019-05-05T05:00:35.486Z,12.98
2019-05-05T05:03:20.741Z,12.58
2019-05-05T05:05:55.659Z,12.30
2019-05-05T05:08:24.747Z,13.50
2019-05-05T05:10:51.932Z,12.63
2019-05-05T05:13:19.616Z,14.80
2019-05-05T05:15:46.919Z,13.05
2019-05-05T05:18:16.486Z,12.25
2019-05-05T05:20:44.422Z,12.70
2019-05-05T05:23:13.980Z,11.88
2019-05-05T05:25:40.897Z,12.18
2019-05-05T05:28:08.186Z,13.18
2019-05-05T05:30:35.534Z,13.18
2019-05-05T05:33:04.338Z,13.25
2019-05-05T05:35:33.476Z,14.35
2019-05-05T05:38:00.692Z,13.00
2019-05-05T05:40:38.294Z,13.65
2019-05-05T05:43:07.270Z,12.47
2019-05-05T05:45:47.959Z,12.07
2019-05-05T05:48:16.919Z,12.23
2019-05-05T05:50:48.929Z,11.48
2019-05-05T05:53:16.248Z,11.97
2019-05-05T05:55:44.791Z,11.18
2019-05-05T05:58:14.049Z,11.33
2019-05-05T06:00:42.312Z,10.50
2019-05-05T06:03:10.600Z,10.32
2019-05-05T06:05:37.894Z,10.75
2019-05-05T06:08:05.275Z,10.70
2019-05-05T06:10:33.934Z,11.22
2019-05-05T06:13:01.298Z,11.65
2019-05-05T06:15:28.611Z,11.20
2019-05-05T06:17:55.912Z,10.63
2019-05-05T06:20:23.850Z,10.55
2019-05-05T06:22:53.394Z,9.25
2019-05-05T06:25:20.211Z,10.15
2019-05-05T06:27:47.500Z,10.68
2019-05-05T06:30:15.086Z,10.15
2019-05-05T06:32:43.707Z,10.15
2019-05-05T06:35:11.399Z,10.72
2019-05-05T06:37:40.815Z,10.65
2019-05-05T06:40:09.766Z,10.98
2019-05-05T06:42:38.693Z,10.90
2019-05-05T06:45:08.024Z,15.10
2019-05-05T06:47:37.081Z,15.88
2019-05-05T06:50:06.024Z,12.15
2019-05-05T06:52:43.691Z,10.43
2019-05-05T06:55:03.765Z,11.22
2019-05-05T06:57:31.087Z,11.35
2019-05-05T06:59:58.383Z,11.00
2019-05-05T07:02:25.698Z,10.75
2019-05-05T07:04:54.666Z,9.80
2019-05-05T07:07:23.616Z,10.93
2019-05-05T07:09:50.998Z,9.03
2019-05-05T07:12:18.280Z,10.93
2019-05-05T07:14:45.584Z,9.93
2019-05-05T07:17:14.090Z,10.20
2019-05-05T07:19:41.515Z,10.05
2019-05-05T07:22:08.808Z,10.00
2019-05-05T07:24:36.094Z,10.15
2019-05-05T07:27:04.775Z,9.05
2019-05-05T07:29:34.145Z,11.38
2019-05-05T07:32:01.215Z,8.88
2019-05-05T07:34:30.105Z,7.70
2019-05-05T07:36:57.422Z,7.33
2019-05-05T07:39:24.716Z,8.90
2019-05-05T07:41:53.991Z,8.23
2019-05-05T07:44:28.319Z,6.55
2019-05-05T07:46:49.893Z,6.97
2019-05-05T07:49:17.200Z,6.92
2019-05-05T07:51:44.548Z,6.58
2019-05-05T07:54:11.801Z,6.67
2019-05-05T07:56:39.093Z,7.22
2019-05-05T07:59:06.418Z,7.92
2019-05-05T08:01:33.943Z,10.80
2019-05-05T08:04:01.303Z,6.17
2019-05-05T08:06:28.615Z,6.15
2019-05-05T08:08:55.901Z,6.15
2019-05-05T08:11:23.909Z,7.80
2019-05-05T08:13:51.301Z,5.55
2019-05-05T08:16:29.128Z,5.75
2019-05-05T08:19:14.544Z,6.80
2019-05-05T08:21:43.626Z,6.40
2019-05-05T08:24:13.968Z,6.90
2019-05-05T08:26:59.214Z,6.22
2019-05-05T08:29:31.219Z,6.87
2019-05-05T08:32:00.142Z,7.15
2019-05-05T08:34:27.458Z,6.53
2019-05-05T08:36:54.747Z,6.08
2019-05-05T08:39:24.293Z,6.83
2019-05-05T08:41:51.040Z,6.00
2019-05-05T08:44:18.375Z,5.70
2019-05-05T08:46:45.665Z,5.87
2019-05-05T08:49:13.746Z,4.67
2019-05-05T08:51:41.085Z,5.47
2019-05-05T08:54:08.410Z,5.35
2019-05-05T08:56:35.727Z,5.67
2019-05-05T08:59:03.631Z,6.58
2019-05-05T09:01:31.051Z,5.40
2019-05-05T09:03:58.335Z,5.92
2019-05-05T09:06:25.658Z,6.83
2019-05-05T09:08:54.794Z,7.95
2019-05-05T09:11:23.934Z,6.62
2019-05-05T09:13:50.823Z,5.33
2019-05-05T09:16:18.115Z,5.35
2019-05-05T09:18:47.032Z,5.70
2019-05-05T09:21:14.346Z,6.10
2019-05-05T09:23:56.019Z,5.20
2019-05-05T09:26:34.572Z,4.67
2019-05-05T09:29:19.882Z,4.97
2019-05-05T09:31:47.529Z,4.62
2019-05-05T09:34:14.842Z,3.58
2019-05-05T09:36:43.975Z,4.85
2019-05-05T09:39:11.102Z,3.92
2019-05-05T09:41:38.397Z,3.98
2019-05-05T09:44:05.722Z,3.80
2019-05-05T09:46:34.086Z,4.10
2019-05-05T09:49:01.426Z,3.52
2019-05-05T09:51:28.782Z,3.70
2019-05-05T09:53:56.079Z,4.83
2019-05-05T09:56:23.674Z,3.30
2019-05-05T09:58:50.974Z,4.12
2019-05-05T10:01:18.259Z,2.70
2019-05-05T10:03:45.550Z,4.00
2019-05-05T10:06:14.273Z,3.40
2019-05-05T10:08:41.644Z,3.58
2019-05-05T10:11:08.963Z,2.83
2019-05-05T10:13:36.260Z,3.45
2019-05-05T10:16:04.162Z,3.60
2019-05-05T10:18:31.430Z,3.47
2019-05-05T10:20:58.700Z,4.40
2019-05-05T10:23:27.631Z,4.80
2019-05-05T10:25:56.222Z,6.30
2019-05-05T10:28:24.031Z,5.53
2019-05-05T10:30:51.320Z,3.70
2019-05-05T10:33:18.618Z,3.27
2019-05-05T10:35:45.928Z,3.65
2019-05-05T10:38:14.323Z,3.15
2019-05-05T10:40:41.743Z,2.80
2019-05-05T10:43:09.060Z,3.58
2019-05-05T10:45:36.346Z,2.58
2019-05-05T10:48:04.181Z,4.17
2019-05-05T10:50:33.878Z,2.83
2019-05-05T10:53:00.503Z,3.60
2019-05-05T10:55:27.813Z,2.75
2019-05-05T10:57:55.120Z,5.30
2019-05-05T11:00:27.131Z,2.80
2019-05-05T11:02:54.418Z,2.92
2019-05-05T11:05:23.519Z,2.85
2019-05-05T11:07:50.821Z,2.83
2019-05-05T11:10:19.749Z,3.12
2019-05-05T11:12:47.053Z,3.77
2019-05-05T11:15:15.251Z,3.83
2019-05-05T11:17:43.949Z,4.87
2019-05-05T11:20:14.364Z,4.25
2019-05-05T11:22:43.714Z,5.00
2019-05-05T11:25:10.787Z,4.47
2019-05-05T11:27:38.097Z,5.10
2019-05-05T11:30:17.131Z,3.72
2019-05-05T11:33:04.015Z,4.35
2019-05-05T11:35:49.475Z,4.20
2019-05-05T11:38:16.808Z,4.70
2019-05-05T11:40:44.128Z,5.22
2019-05-05T11:43:11.455Z,4.17
2019-05-05T11:45:38.742Z,3.77
2019-05-05T11:48:06.035Z,3.30
2019-05-05T11:50:34.242Z,3.27
2019-05-05T11:53:01.558Z,3.20
2019-05-05T11:55:28.859Z,2.90
2019-05-05T11:57:57.634Z,2.45
2019-05-05T12:00:25.137Z,2.95
2019-05-05T12:02:54.307Z,3.10
2019-05-05T12:05:21.366Z,3.45
2019-05-05T12:07:48.666Z,3.22
2019-05-05T12:10:17.591Z,2.52
2019-05-05T12:12:44.911Z,2.75
2019-05-05T12:15:13.426Z,5.22
2019-05-05T12:17:40.747Z,3.77
2019-05-05T12:20:08.329Z,2.98
2019-05-05T12:22:35.617Z,2.98
2019-05-05T12:25:04.722Z,3.02
2019-05-05T12:27:36.378Z,2.37
2019-05-05T12:30:05.410Z,2.98
2019-05-05T12:32:34.674Z,2.20
2019-05-05T12:35:01.682Z,2.67
2019-05-05T12:37:28.970Z,2.40
2019-05-05T12:39:56.267Z,2.00
2019-05-05T12:42:24.213Z,3.05
2019-05-05T12:44:53.724Z,2.45
2019-05-05T12:47:25.450Z,3.62
2019-05-05T12:49:54.511Z,2.20
2019-05-05T12:52:21.856Z,1.92
2019-05-05T12:54:49.142Z,1.95
2019-05-05T12:57:16.470Z,1.37
2019-05-05T12:59:44.394Z,6.47
2019-05-05T13:02:11.758Z,2.08
2019-05-05T13:04:39.102Z,2.47
2019-05-05T13:07:08.313Z,3.12
2019-05-05T13:09:35.353Z,1.47
2019-05-05T13:12:04.511Z,3.12
2019-05-05T13:14:33.496Z,1.65
2019-05-05T13:17:00.535Z,1.90
2019-05-05T13:19:34.569Z,2.65
2019-05-05T13:22:11.907Z,1.57
2019-05-05T13:24:43.673Z,1.80
2019-05-05T13:27:19.206Z,1.98
2019-05-05T13:29:41.527Z,2.30
2019-05-05T13:32:08.848Z,1.40
2019-05-05T13:34:36.135Z,1.55
2019-05-05T13:37:03.636Z,1.70
2019-05-05T13:39:30.954Z,1.62
2019-05-05T13:41:58.246Z,1.25
2019-05-05T13:44:27.202Z,3.05
2019-05-05T13:46:54.495Z,2.80
2019-05-05T13:49:24.032Z,1.27
2019-05-05T13:51:51.443Z,1.77
2019-05-05T13:54:18.775Z,1.67
2019-05-05T13:56:46.065Z,1.90
2019-05-05T13:59:14.107Z,2.22
2019-05-05T14:01:41.615Z,7.45
2019-05-05T14:04:08.918Z,2.25
2019-05-05T14:06:36.201Z,2.10
2019-05-05T14:09:04.768Z,1.42
2019-05-05T14:11:33.861Z,3.37
2019-05-05T14:14:01.018Z,2.25
2019-05-05T14:16:28.361Z,2.10
2019-05-05T14:18:55.686Z,2.27
2019-05-05T14:21:24.462Z,5.50
2019-05-05T14:23:54.529Z,2.25
2019-05-05T14:26:27.814Z,1.50
2019-05-05T14:28:51.028Z,6.47
2019-05-05T14:31:19.982Z,1.75
2019-05-05T14:33:48.913Z,1.42
2019-05-05T14:36:26.927Z,1.22
2019-05-05T14:38:55.790Z,2.37
2019-05-05T14:41:23.082Z,1.70
2019-05-05T14:43:50.397Z,1.60
2019-05-05T14:46:17.708Z,2.52
2019-05-05T14:48:44.997Z,1.10
2019-05-05T14:51:14.407Z,1.60
2019-05-05T14:53:41.246Z,1.80
2019-05-05T14:56:08.526Z,2.37
2019-05-05T14:58:35.891Z,2.22
2019-05-05T15:01:04.483Z,1.20
2019-05-05T15:03:33.575Z,0.83
2019-05-05T15:06:08.336Z,1.67
2019-05-05T15:08:43.905Z,2.15
2019-05-05T15:11:23.461Z,5.67
2019-05-05T15:13:50.846Z,2.25
2019-05-05T15:16:18.160Z,2.00
2019-05-05T15:18:45.484Z,1.40
2019-05-05T15:21:12.768Z,2.20
2019-05-05T15:23:40.067Z,0.73
2019-05-05T15:26:08.138Z,1.17
2019-05-05T15:28:35.474Z,2.15
2019-05-05T15:31:02.778Z,1.65
2019-05-05T15:33:30.075Z,1.30
2019-05-05T15:35:57.384Z,2.22
2019-05-05T15:38:24.675Z,1.65
2019-05-05T15:40:51.960Z,1.12
2019-05-05T15:43:19.284Z,1.55
2019-05-05T15:45:46.578Z,2.70
2019-05-05T15:48:14.060Z,1.07
2019-05-05T15:50:41.360Z,3.37
2019-05-05T15:53:08.686Z,2.30
2019-05-05T15:55:35.971Z,1.98
2019-05-05T15:58:03.649Z,2.52
2019-05-05T16:00:30.982Z,3.33
2019-05-05T16:02:58.273Z,3.20
2019-05-05T16:05:25.562Z,1.80
2019-05-05T16:07:54.271Z,4.10
2019-05-05T16:10:23.243Z,2.70
2019-05-05T16:12:50.519Z,3.22
2019-05-05T16:15:19.476Z,10.18
2019-05-05T16:17:48.407Z,1.67
2019-05-05T16:20:17.329Z,1.65
2019-05-05T16:22:54.132Z,2.62
2019-05-05T16:25:21.287Z,3.85
2019-05-05T16:27:48.601Z,3.10
2019-05-05T16:30:16.062Z,4.15
2019-05-05T16:32:43.344Z,2.17
2019-05-05T16:35:10.660Z,3.37
2019-05-05T16:37:37.954Z,2.30
2019-05-05T16:40:06.902Z,2.42
2019-05-05T16:42:34.525Z,4.80
2019-05-05T16:45:01.791Z,2.55
2019-05-05T16:47:29.086Z,1.80
2019-05-05T16:49:56.370Z,2.92
2019-05-05T16:52:25.331Z,2.27
2019-05-05T16:54:59.958Z,3.02
2019-05-05T16:57:33.872Z,7.03
2019-05-05T16:59:56.197Z,5.05
2019-05-05T17:02:24.177Z,3.17
2019-05-05T17:04:51.517Z,2.83
2019-05-05T17:07:18.847Z,3.50
2019-05-05T17:09:46.146Z,3.75
2019-05-05T17:12:14.105Z,2.72
2019-05-05T17:14:59.230Z,2.83
2019-05-05T17:17:31.085Z,2.77
2019-05-05T17:20:04.562Z,3.98
2019-05-05T17:22:44.623Z,3.10
2019-05-05T17:25:13.842Z,2.92
2019-05-05T17:27:50.289Z,2.98
2019-05-05T17:30:09.651Z,4.03
2019-05-05T17:32:36.969Z,2.92
2019-05-05T17:35:04.290Z,11.03
2019-05-05T17:37:33.438Z,5.05
2019-05-05T17:40:04.071Z,5.67
2019-05-05T17:42:41.503Z,3.40
2019-05-05T17:45:19.392Z,3.55
2019-05-05T17:48:00.135Z,3.33
2019-05-05T17:50:29.063Z,3.72
2019-05-05T17:53:02.568Z,3.52
2019-05-05T17:55:37.293Z,3.92
2019-05-05T17:58:05.399Z,4.20
2019-05-05T18:00:34.468Z,3.70
2019-05-05T18:03:01.778Z,4.40
2019-05-05T18:05:46.822Z,4.25
2019-05-05T18:08:33.662Z,4.50
2019-05-05T18:11:03.928Z,5.55
2019-05-05T18:13:35.550Z,6.87
2019-05-05T18:16:04.554Z,4.47
2019-05-05T18:18:31.927Z,4.70
2019-05-05T18:20:59.251Z,4.53
2019-05-05T18:23:26.539Z,5.17
2019-05-05T18:25:54.846Z,5.87
2019-05-05T18:28:24.553Z,5.47
2019-05-05T18:30:51.083Z,5.58
2019-05-05T18:33:18.396Z,4.85
2019-05-05T18:35:45.711Z,4.83
2019-05-05T18:38:13.716Z,5.22
2019-05-05T18:40:41.127Z,5.22
2019-05-05T18:43:10.057Z,4.60
2019-05-05T18:45:37.376Z,4.60
2019-05-05T18:48:04.663Z,4.35
2019-05-05T18:50:33.843Z,5.00
2019-05-05T18:53:00.949Z,5.67
2019-05-05T18:55:28.253Z,4.90
2019-05-05T18:57:55.573Z,4.78
2019-05-05T19:00:30.061Z,5.17
2019-05-05T19:03:01.395Z,5.30
2019-05-05T19:05:30.354Z,10.15
2019-05-05T19:08:07.953Z,6.70
2019-05-05T19:10:35.262Z,6.03
2019-05-05T19:13:02.581Z,6.12
2019-05-05T19:15:29.899Z,6.15
2019-05-05T19:17:57.194Z,6.33
2019-05-05T19:20:27.658Z,6.03
2019-05-05T19:23:03.514Z,6.20
2019-05-05T19:25:30.674Z,6.58
2019-05-05T19:27:57.966Z,7.20
2019-05-05T19:30:25.741Z,6.33
2019-05-05T19:32:54.175Z,7.00
2019-05-05T19:35:23.537Z,11.45
2019-05-05T19:37:50.454Z,7.22
2019-05-05T19:40:17.751Z,8.43
2019-05-05T19:42:46.270Z,7.08
2019-05-05T19:45:13.645Z,9.65
2019-05-05T19:47:40.956Z,6.42
2019-05-05T19:50:24.775Z,8.70
2019-05-05T19:52:53.901Z,6.47
2019-05-05T19:55:20.981Z,6.17
2019-05-05T19:57:48.289Z,7.40
2019-05-05T20:00:16.083Z,7.97
2019-05-05T20:02:43.916Z,7.40
2019-05-05T20:05:11.254Z,7.45
2019-05-05T20:07:38.558Z,7.15
2019-05-05T20:10:05.839Z,9.00
2019-05-05T20:12:33.517Z,9.35
2019-05-05T20:15:01.417Z,9.35
2019-05-05T20:17:30.331Z,10.48
2019-05-05T20:19:57.652Z,8.38
2019-05-05T20:22:24.934Z,9.38
2019-05-05T20:24:52.234Z,10.18
2019-05-05T20:27:19.556Z,10.10
2019-05-05T20:29:46.849Z,10.25
2019-05-05T20:32:15.508Z,9.10
2019-05-05T20:34:50.119Z,8.80
2019-05-05T20:37:19.041Z,8.45
2019-05-05T20:39:46.349Z,9.70
2019-05-05T20:42:14.935Z,9.93
2019-05-05T20:44:43.739Z,9.95
2019-05-05T20:47:11.239Z,10.45
2019-05-05T20:49:38.550Z,11.88
2019-05-05T20:52:05.842Z,11.30
2019-05-05T20:54:33.127Z,10.65
2019-05-05T20:57:00.440Z,10.85
2019-05-05T20:59:30.951Z,9.53
2019-05-05T21:01:56.690Z,11.68
2019-05-05T21:04:24.618Z,10.85
2019-05-05T21:06:51.998Z,10.05
2019-05-05T21:09:19.292Z,10.25
2019-05-05T21:11:46.675Z,10.20
2019-05-05T21:14:14.802Z,9.45
2019-05-05T21:16:44.062Z,9.13
2019-05-05T21:19:11.102Z,10.13
2019-05-05T21:21:40.033Z,10.05
2019-05-05T21:24:07.351Z,9.20
2019-05-05T21:26:48.382Z,9.03
2019-05-05T21:29:16.262Z,9.83
2019-05-05T21:31:43.897Z,9.60
2019-05-05T21:34:11.280Z,10.80
2019-05-05T21:36:38.566Z,10.82
2019-05-05T21:39:07.489Z,10.25
2019-05-05T21:41:34.799Z,10.98
2019-05-05T21:44:03.770Z,11.20
2019-05-05T21:46:31.195Z,13.83
2019-05-05T21:48:58.495Z,13.30
2019-05-05T21:51:27.421Z,12.98
2019-05-05T21:53:56.368Z,11.33
2019-05-05T21:56:37.026Z,10.08
2019-05-05T21:59:04.362Z,11.75
2019-05-05T22:01:38.701Z,10.90
2019-05-05T22:04:03.482Z,10.32
2019-05-05T22:06:30.598Z,10.55
2019-05-05T22:08:57.891Z,9.73
2019-05-05T22:11:25.206Z,10.60
2019-05-05T22:13:53.996Z,11.05
2019-05-05T22:16:21.520Z,11.68
2019-05-05T22:18:48.817Z,11.25
2019-05-05T22:21:17.746Z,10.35
2019-05-05T22:23:46.693Z,11.25
2019-05-05T22:26:15.123Z,10.55
2019-05-05T22:28:44.514Z,9.80
2019-05-05T22:31:11.460Z,10.60
2019-05-05T22:33:38.754Z,10.98
2019-05-05T22:36:07.136Z,11.70
2019-05-05T22:38:34.473Z,11.33
2019-05-05T22:41:01.810Z,13.10
2019-05-05T22:43:29.111Z,11.80
2019-05-05T22:45:56.433Z,12.25
2019-05-05T22:48:24.005Z,11.65
2019-05-05T22:50:51.321Z,12.82
2019-05-05T22:53:18.649Z,13.30
2019-05-05T22:55:45.946Z,13.70
2019-05-05T22:58:14.305Z,12.80
2019-05-05T23:00:43.733Z,12.00
2019-05-05T23:03:13.679Z,12.82
2019-05-05T23:05:48.583Z,12.13
2019-05-05T23:08:18.517Z,12.40
2019-05-05T23:10:44.821Z,12.55
2019-05-05T23:13:13.530Z,12.53
2019-05-05T23:15:43.988Z,12.37
2019-05-05T23:18:18.923Z,13.58
2019-05-05T23:21:00.578Z,11.57
2019-05-05T23:23:34.161Z,12.07
2019-05-05T23:26:03.862Z,11.90
2019-05-05T23:28:33.553Z,12.75
2019-05-05T23:31:00.148Z,13.05
2019-05-05T23:33:27.439Z,12.90
2019-05-05T23:35:55.141Z,14.43
2019-05-05T23:38:23.895Z,15.78
2019-05-05T23:40:51.275Z,13.72
2019-05-05T23:43:18.569Z,12.28
2019-05-05T23:45:45.867Z,14.70
2019-05-05T23:48:14.367Z,12.90
2019-05-05T23:50:41.790Z,13.53
2019-05-05T23:53:09.091Z,12.00
2019-05-05T23:55:36.401Z,11.95
2019-05-05T23:58:03.845Z,11.70
